createdAt,value
2017-09-11T00:01:21.739Z,14.80
2017-09-11T00:03:49.794Z,14.90
2017-09-11T00:06:17.867Z,14.90
2017-09-11T00:08:45.911Z,14.90
2017-09-11T00:11:14.782Z,15.00
2017-09-11T00:13:42.846Z,15.00
2017-09-11T00:16:10.916Z,15.10
2017-09-11T00:18:38.982Z,15.10
2017-09-11T00:21:07.039Z,15.20
2017-09-11T00:23:35.113Z,15.20
2017-09-11T00:26:03.150Z,15.20
2017-09-11T00:28:31.234Z,15.20
2017-09-11T00:30:59.303Z,15.20
2017-09-11T00:33:27.367Z,15.20
2017-09-11T00:35:55.582Z,15.20
2017-09-11T00:38:23.626Z,15.20
2017-09-11T00:40:51.695Z,15.20
2017-09-11T00:43:47.000Z,15.30
2017-09-11T00:46:15.087Z,15.30
2017-09-11T00:48:43.144Z,15.40
2017-09-11T00:51:11.210Z,15.30
2017-09-11T00:53:39.288Z,15.40
2017-09-11T00:56:07.380Z,15.40
2017-09-11T00:58:35.583Z,15.40
2017-09-11T01:01:03.676Z,15.40
2017-09-11T01:03:31.729Z,15.40
2017-09-11T01:05:59.778Z,15.40
2017-09-11T01:08:27.848Z,15.40
2017-09-11T01:10:55.899Z,15.40
2017-09-11T01:13:24.769Z,15.40
2017-09-11T01:15:52.835Z,15.30
2017-09-11T01:18:20.898Z,15.40
2017-09-11T01:20:49.003Z,15.40
2017-09-11T01:23:17.059Z,15.40
2017-09-11T01:25:45.115Z,15.40
2017-09-11T01:28:13.931Z,15.40
2017-09-11T01:30:42.786Z,15.40
2017-09-11T01:33:10.835Z,15.30
2017-09-11T01:35:38.903Z,15.40
2017-09-11T01:38:06.950Z,15.40
2017-09-11T01:40:35.004Z,15.40
2017-09-11T01:43:03.840Z,15.30
2017-09-11T01:45:31.887Z,15.20
2017-09-11T01:47:59.980Z,15.20
2017-09-11T01:50:28.264Z,15.20
2017-09-11T01:52:56.311Z,15.20
2017-09-11T01:55:24.379Z,15.30
2017-09-11T01:57:52.449Z,15.20
2017-09-11T02:00:20.511Z,15.30
2017-09-11T02:02:48.862Z,15.40
2017-09-11T02:05:16.920Z,15.40
2017-09-11T02:07:45.008Z,15.30
2017-09-11T02:10:13.066Z,15.30
2017-09-11T02:12:41.114Z,15.20
2017-09-11T02:15:09.959Z,15.10
2017-09-11T02:17:38.033Z,15.10
2017-09-11T02:20:06.097Z,15.00
2017-09-11T02:22:34.146Z,15.00
2017-09-11T02:25:02.211Z,15.00
2017-09-11T02:27:30.280Z,15.10
2017-09-11T02:29:58.328Z,15.10
2017-09-11T02:32:27.243Z,15.10
2017-09-11T02:34:56.042Z,15.10
2017-09-11T02:37:24.108Z,15.00
2017-09-11T02:39:52.167Z,15.00
2017-09-11T02:42:20.270Z,15.00
2017-09-11T02:44:48.323Z,15.10
2017-09-11T02:47:16.384Z,15.00
2017-09-11T02:49:44.436Z,15.00
2017-09-11T02:52:13.288Z,15.00
2017-09-11T02:54:42.051Z,14.90
2017-09-11T02:57:10.102Z,15.10
2017-09-11T02:59:38.167Z,15.10
2017-09-11T03:02:06.218Z,15.10
2017-09-11T03:04:34.299Z,15.10
2017-09-11T03:07:03.140Z,15.10
2017-09-11T03:09:31.201Z,15.10
2017-09-11T03:11:59.266Z,15.00
2017-09-11T03:14:27.774Z,14.90
2017-09-11T03:16:55.848Z,15.00
2017-09-11T03:19:23.906Z,15.00
2017-09-11T03:21:51.968Z,15.10
2017-09-11T03:24:20.072Z,15.10
2017-09-11T03:26:48.144Z,15.10
2017-09-11T03:29:16.197Z,15.10
2017-09-11T03:31:44.267Z,15.10
2017-09-11T03:34:12.427Z,15.20
2017-09-11T03:36:40.468Z,15.10
2017-09-11T03:39:10.314Z,15.20
2017-09-11T03:41:38.394Z,15.10
2017-09-11T03:44:06.467Z,15.30
2017-09-11T03:46:34.538Z,15.30
2017-09-11T03:49:02.590Z,15.30
2017-09-11T03:51:31.522Z,15.30
2017-09-11T03:53:59.574Z,15.20
2017-09-11T03:56:27.646Z,15.10
2017-09-11T03:58:55.719Z,15.20
2017-09-11T04:01:23.783Z,15.10
2017-09-11T04:03:51.852Z,15.10
2017-09-11T04:06:20.663Z,15.10
2017-09-11T04:08:48.739Z,15.10
2017-09-11T04:11:16.790Z,15.10
2017-09-11T04:13:44.875Z,15.10
2017-09-11T04:16:12.931Z,15.00
2017-09-11T04:18:40.990Z,15.00
2017-09-11T04:21:09.885Z,15.00
2017-09-11T04:23:38.678Z,15.10
2017-09-11T04:26:06.751Z,15.10
2017-09-11T04:28:34.799Z,15.10
2017-09-11T04:31:03.620Z,14.90
2017-09-11T04:33:31.687Z,14.80
2017-09-11T04:35:59.752Z,14.70
2017-09-11T04:38:27.879Z,14.60
2017-09-11T04:40:57.487Z,14.60
2017-09-11T04:43:25.526Z,14.60
2017-09-11T04:45:53.594Z,14.60
2017-09-11T04:48:21.657Z,14.60
2017-09-11T04:50:49.715Z,14.50
2017-09-11T04:53:17.927Z,14.40
2017-09-11T04:55:45.979Z,14.20
2017-09-11T04:58:14.052Z,14.20
2017-09-11T05:00:43.043Z,14.10
2017-09-11T05:03:11.103Z,14.00
2017-09-11T05:05:39.175Z,13.90
2017-09-11T05:08:07.283Z,13.80
2017-09-11T05:10:35.355Z,13.90
2017-09-11T05:13:03.447Z,13.90
2017-09-11T05:15:32.283Z,14.00
2017-09-11T05:18:00.343Z,14.00
2017-09-11T05:20:28.419Z,13.90
2017-09-11T05:22:56.467Z,14.00
2017-09-11T05:25:24.538Z,14.10
2017-09-11T05:27:52.634Z,14.20
2017-09-11T05:30:20.680Z,14.20
2017-09-11T05:32:48.757Z,14.20
2017-09-11T05:35:16.827Z,14.30
2017-09-11T05:37:44.906Z,14.40
2017-09-11T05:40:12.975Z,14.40
2017-09-11T05:42:41.101Z,14.60
2017-09-11T05:45:09.175Z,14.70
2017-09-11T05:47:37.232Z,14.60
2017-09-11T05:50:05.314Z,14.50
2017-09-11T05:52:33.370Z,14.40
2017-09-11T05:55:01.438Z,14.50
2017-09-11T05:57:29.510Z,14.60
2017-09-11T05:59:57.582Z,14.60
2017-09-11T06:02:27.746Z,14.50
2017-09-11T07:17:17.722Z,13.60
2017-09-11T07:19:45.783Z,13.70
2017-09-11T07:22:14.646Z,14.10
2017-09-11T07:24:42.698Z,14.00
2017-09-11T07:27:10.751Z,14.30
2017-09-11T07:29:38.819Z,14.50
2017-09-11T07:32:06.891Z,14.70
2017-09-11T07:34:34.972Z,14.80
2017-09-11T07:37:03.030Z,14.90
2017-09-11T07:39:31.144Z,15.00
2017-09-11T07:41:59.198Z,15.10
2017-09-11T07:44:27.254Z,15.20
2017-09-11T07:46:55.329Z,15.30
2017-09-11T07:49:23.404Z,15.40
2017-09-11T07:51:51.818Z,15.50
2017-09-11T07:54:19.888Z,15.70
2017-09-11T07:56:47.948Z,15.90
2017-09-11T07:59:16.028Z,15.80
2017-09-11T08:01:44.098Z,16.00
2017-09-11T08:04:12.973Z,16.10
2017-09-11T08:06:41.043Z,16.20
2017-09-11T08:09:09.135Z,16.30
2017-09-11T08:11:37.960Z,16.00
2017-09-11T08:14:06.037Z,16.00
2017-09-11T08:16:34.164Z,16.00
2017-09-11T08:19:02.990Z,16.10
2017-09-11T08:21:31.067Z,16.10
2017-09-11T08:23:59.136Z,16.30
2017-09-11T08:26:27.190Z,16.50
2017-09-11T08:28:55.271Z,16.60
2017-09-11T08:31:23.306Z,16.80
2017-09-11T08:33:52.150Z,17.40
2017-09-11T08:36:20.240Z,17.40
2017-09-11T08:38:48.287Z,17.50
2017-09-11T08:41:16.333Z,17.20
2017-09-11T08:43:44.395Z,17.00
2017-09-11T08:46:13.228Z,17.00
2017-09-11T08:48:41.312Z,16.90
2017-09-11T08:51:09.363Z,17.00
2017-09-11T08:53:37.443Z,17.10
2017-09-11T08:56:05.500Z,17.40
2017-09-11T08:58:33.548Z,18.00
2017-09-11T09:01:01.724Z,18.40
2017-09-11T09:03:29.751Z,18.30
2017-09-11T09:05:58.587Z,18.20
2017-09-11T09:08:26.668Z,18.10
2017-09-11T09:10:54.731Z,18.00
2017-09-11T09:13:22.786Z,17.90
2017-09-11T09:15:50.835Z,18.10
2017-09-11T09:18:18.907Z,18.60
2017-09-11T09:20:46.987Z,18.70
2017-09-11T09:23:15.052Z,18.80
2017-09-11T09:25:43.119Z,19.10
2017-09-11T09:28:11.177Z,19.40
2017-09-11T09:30:39.259Z,20.00
2017-09-11T09:33:07.324Z,20.30
2017-09-11T09:35:35.392Z,20.50
2017-09-11T09:38:03.459Z,21.70
2017-09-11T09:40:31.534Z,23.80
2017-09-11T09:42:59.704Z,24.80
2017-09-11T09:45:28.519Z,25.30
2017-09-11T09:47:56.606Z,25.30
2017-09-11T09:50:24.683Z,26.00
2017-09-11T09:52:52.735Z,26.20
2017-09-11T09:55:20.803Z,24.20
2017-09-11T09:57:48.859Z,22.90
2017-09-11T10:00:16.923Z,22.40
2017-09-11T10:02:44.991Z,24.10
2017-09-11T10:05:13.060Z,26.10
2017-09-11T10:07:41.155Z,27.20
2017-09-11T10:10:09.215Z,28.70
2017-09-11T10:12:37.299Z,29.80
2017-09-11T10:15:05.359Z,29.50
2017-09-11T10:17:33.413Z,28.60
2017-09-11T10:20:01.491Z,27.10
2017-09-11T10:22:29.556Z,26.80
2017-09-11T10:24:57.626Z,26.00
2017-09-11T10:27:25.708Z,26.50
2017-09-11T10:29:53.762Z,25.30
2017-09-11T10:32:21.851Z,24.00
2017-09-11T10:34:49.909Z,22.90
2017-09-11T10:37:17.976Z,21.80
2017-09-11T10:39:46.031Z,20.20
2017-09-11T10:42:14.891Z,18.60
2017-09-11T10:44:42.946Z,18.50
2017-09-11T10:47:11.026Z,18.30
2017-09-11T10:49:39.088Z,17.90
2017-09-11T10:52:07.161Z,18.10
2017-09-11T10:54:35.228Z,19.10
2017-09-11T10:57:03.311Z,21.30
2017-09-11T10:59:31.382Z,23.20
2017-09-11T11:01:59.431Z,24.10
2017-09-11T11:04:27.504Z,23.90
2017-09-11T11:06:55.571Z,23.10
2017-09-11T11:09:23.651Z,22.40
2017-09-11T11:11:51.724Z,21.80
2017-09-11T11:14:19.787Z,20.90
2017-09-11T11:16:47.864Z,20.20
2017-09-11T11:19:15.935Z,19.30
2017-09-11T11:21:44.006Z,18.30
2017-09-11T11:24:12.074Z,17.40
2017-09-11T11:26:40.179Z,16.60
2017-09-11T11:29:08.240Z,16.10
2017-09-11T11:31:36.303Z,16.00
2017-09-11T11:34:04.398Z,17.40
2017-09-11T11:36:32.518Z,19.90
2017-09-11T11:39:01.308Z,19.50
2017-09-11T11:41:29.370Z,19.50
2017-09-11T11:43:57.439Z,18.70
2017-09-11T11:46:25.507Z,18.40
2017-09-11T11:48:53.578Z,19.60
2017-09-11T11:51:21.647Z,21.50
2017-09-11T11:53:49.699Z,22.60
2017-09-11T11:56:18.534Z,22.00
2017-09-11T11:58:46.577Z,22.00
2017-09-11T12:01:14.653Z,21.30
2017-09-11T12:03:42.724Z,20.60
2017-09-11T12:06:10.899Z,20.50
2017-09-11T12:08:39.483Z,20.30
2017-09-11T12:11:07.555Z,19.80
2017-09-11T12:13:35.623Z,19.40
2017-09-11T12:16:04.427Z,19.10
2017-09-11T12:18:32.539Z,19.10
2017-09-11T12:21:00.630Z,19.00
2017-09-11T12:23:29.499Z,19.00
2017-09-11T12:25:57.545Z,19.00
2017-09-11T12:28:25.620Z,19.10
2017-09-11T12:30:54.127Z,19.20
2017-09-11T12:33:22.216Z,19.30
2017-09-11T12:35:50.279Z,19.20
2017-09-11T12:38:18.347Z,19.10
2017-09-11T12:40:46.428Z,18.90
2017-09-11T12:43:14.499Z,19.20
2017-09-11T12:45:42.667Z,19.20
2017-09-11T12:48:10.742Z,19.50
2017-09-11T12:50:38.790Z,19.90
2017-09-11T12:53:06.874Z,20.00
2017-09-11T12:55:34.946Z,19.90
2017-09-11T12:58:03.023Z,19.70
2017-09-11T13:00:31.081Z,19.70
2017-09-11T13:02:59.230Z,19.90
2017-09-11T13:05:27.247Z,20.00
2017-09-11T13:07:55.326Z,20.00
2017-09-11T13:10:23.531Z,19.80
2017-09-11T13:12:51.578Z,19.60
2017-09-11T13:15:19.654Z,19.60
2017-09-11T13:17:47.738Z,19.90
2017-09-11T13:20:15.786Z,20.10
2017-09-11T13:22:43.854Z,20.20
2017-09-11T13:25:11.972Z,20.30
2017-09-11T13:27:40.027Z,20.30
2017-09-11T13:30:08.116Z,20.20
2017-09-11T13:32:36.151Z,20.40
2017-09-11T13:35:04.221Z,20.40
2017-09-11T13:37:32.259Z,20.40
2017-09-11T13:40:01.096Z,20.10
2017-09-11T13:42:29.186Z,20.10
2017-09-11T13:44:57.262Z,20.10
2017-09-11T13:47:25.329Z,20.20
2017-09-11T13:49:54.122Z,20.10
2017-09-11T13:52:22.186Z,20.30
2017-09-11T13:54:50.243Z,20.40
2017-09-11T13:57:18.332Z,20.10
2017-09-11T13:59:46.378Z,19.80
2017-09-11T14:02:14.507Z,19.30
2017-09-11T14:04:42.652Z,19.30
2017-09-11T14:07:10.735Z,19.60
2017-09-11T14:09:38.838Z,19.60
2017-09-11T14:12:06.908Z,19.60
2017-09-11T14:14:35.034Z,19.50
2017-09-11T14:17:03.135Z,19.70
2017-09-11T14:19:31.233Z,19.80
2017-09-11T14:21:59.319Z,19.90
2017-09-11T14:24:27.449Z,19.60
2017-09-11T14:26:55.660Z,19.40
2017-09-11T14:29:23.717Z,19.20
2017-09-11T14:31:52.608Z,19.00
2017-09-11T14:34:20.708Z,19.00
2017-09-11T14:36:48.811Z,19.10
2017-09-11T14:39:16.902Z,19.20
2017-09-11T14:41:45.139Z,19.50
2017-09-11T14:44:13.235Z,19.80
2017-09-11T14:46:41.340Z,20.00
2017-09-11T14:49:09.445Z,20.00
2017-09-11T14:51:37.540Z,19.90
2017-09-11T14:54:05.671Z,19.60
2017-09-11T14:56:33.782Z,19.50
2017-09-11T14:59:01.907Z,19.60
2017-09-11T15:01:30.004Z,19.30
2017-09-11T15:03:58.100Z,19.10
2017-09-11T15:06:27.004Z,18.80
2017-09-11T15:08:55.168Z,18.80
2017-09-11T15:11:24.104Z,18.70
2017-09-11T15:13:52.195Z,18.70
2017-09-11T15:16:20.284Z,18.70
2017-09-11T15:18:48.375Z,18.70
2017-09-11T15:21:16.466Z,18.90
2017-09-11T15:23:45.330Z,19.60
2017-09-11T15:26:13.430Z,19.50
2017-09-11T15:28:42.302Z,19.70
2017-09-11T15:31:10.390Z,19.60
2017-09-11T15:33:39.253Z,19.40
2017-09-11T15:36:07.379Z,19.40
2017-09-11T15:38:35.544Z,19.20
2017-09-11T15:41:03.668Z,19.10
2017-09-11T15:43:31.737Z,19.00
2017-09-11T15:45:59.872Z,19.00
2017-09-11T15:48:28.738Z,19.10
2017-09-11T15:50:56.871Z,19.10
2017-09-11T15:53:24.952Z,19.10
2017-09-11T15:55:53.063Z,19.10
2017-09-11T15:58:21.139Z,18.90
2017-09-11T16:00:49.271Z,18.80
2017-09-11T16:03:17.524Z,18.60
2017-09-11T16:05:45.649Z,18.60
2017-09-11T16:08:13.913Z,18.70
2017-09-11T16:10:42.031Z,18.70
2017-09-11T16:13:10.918Z,18.80
2017-09-11T16:15:39.093Z,18.80
2017-09-11T16:18:08.291Z,18.80
2017-09-11T16:20:37.336Z,18.60
2017-09-11T16:23:05.510Z,18.60
2017-09-11T16:25:33.641Z,18.60
2017-09-11T16:28:01.867Z,18.70
2017-09-11T16:30:30.308Z,18.70
2017-09-11T16:32:58.430Z,18.60
2017-09-11T16:35:26.786Z,18.50
2017-09-11T16:37:54.993Z,18.40
2017-09-11T16:40:23.167Z,18.30
2017-09-11T16:42:51.284Z,18.30
2017-09-11T16:45:19.434Z,18.10
2017-09-11T16:47:48.281Z,18.10
2017-09-11T16:50:16.427Z,18.10
2017-09-11T16:52:44.519Z,18.20
2017-09-11T16:55:13.360Z,18.00
2017-09-11T16:57:41.507Z,18.00
2017-09-11T17:00:09.783Z,17.90
2017-09-11T17:02:37.955Z,17.90
2017-09-11T17:05:06.070Z,18.00
2017-09-11T17:07:34.169Z,17.80
2017-09-11T17:10:02.403Z,17.70
2017-09-11T17:12:30.517Z,17.60
2017-09-11T17:14:59.523Z,17.20
2017-09-11T17:17:27.717Z,17.20
2017-09-11T17:19:55.941Z,17.20
2017-09-11T17:22:24.096Z,17.20
2017-09-11T17:24:52.249Z,17.20
2017-09-11T17:27:20.645Z,17.20
2017-09-11T17:29:48.771Z,17.20
2017-09-11T17:32:16.909Z,17.20
2017-09-11T17:34:45.069Z,17.20
2017-09-11T17:37:13.367Z,17.20
2017-09-11T17:39:41.498Z,17.20
2017-09-11T17:42:09.663Z,17.20
2017-09-11T17:44:37.922Z,17.20
2017-09-11T17:47:06.049Z,17.10
2017-09-11T17:49:34.182Z,17.20
2017-09-11T17:52:02.312Z,17.10
2017-09-11T17:54:30.512Z,17.10
2017-09-11T17:56:59.455Z,17.10
2017-09-11T17:59:27.617Z,17.00
2017-09-11T18:01:55.853Z,17.10
2017-09-11T18:04:23.955Z,17.20
2017-09-11T18:06:52.165Z,17.20
2017-09-11T18:09:20.388Z,17.10
2017-09-11T18:11:48.561Z,17.10
2017-09-11T18:14:17.540Z,17.00
2017-09-11T18:16:45.705Z,17.00
2017-09-11T18:19:13.863Z,17.00
2017-09-11T18:21:42.185Z,17.00
2017-09-11T18:24:10.330Z,17.10
2017-09-11T18:26:38.480Z,17.10
2017-09-11T18:29:06.719Z,17.10
2017-09-11T18:31:34.817Z,17.00
2017-09-11T18:34:02.999Z,17.00
2017-09-11T18:36:31.263Z,17.10
2017-09-11T18:38:59.445Z,17.10
2017-09-11T18:41:27.613Z,17.00
2017-09-11T18:43:55.845Z,16.90
2017-09-11T18:46:25.096Z,16.70
2017-09-11T18:48:53.325Z,16.60
2017-09-11T18:51:21.487Z,16.70
2017-09-11T18:53:49.621Z,16.70
2017-09-11T18:56:17.751Z,16.70
2017-09-11T18:58:45.960Z,16.60
2017-09-11T19:01:14.115Z,16.60
2017-09-11T19:03:42.219Z,16.50
2017-09-11T19:06:10.389Z,16.30
2017-09-11T19:08:38.500Z,16.20
2017-09-11T19:11:06.713Z,16.20
2017-09-11T19:13:35.163Z,16.10
2017-09-11T19:16:03.268Z,16.10
2017-09-11T19:18:31.601Z,16.00
2017-09-11T19:20:59.752Z,15.90
2017-09-11T19:23:28.652Z,15.90
2017-09-11T19:25:56.791Z,15.80
2017-09-11T19:28:24.881Z,15.90
2017-09-11T19:30:53.765Z,15.80
2017-09-11T19:33:21.865Z,15.80
2017-09-11T19:35:50.763Z,15.80
2017-09-11T19:38:19.652Z,15.80
2017-09-11T19:40:48.649Z,15.80
2017-09-11T19:43:17.536Z,15.70
2017-09-11T19:45:45.756Z,15.70
2017-09-11T19:48:14.041Z,15.70
2017-09-11T19:50:42.201Z,15.60
2017-09-11T19:53:10.402Z,15.60
2017-09-11T19:55:38.647Z,15.60
2017-09-11T19:58:06.822Z,15.60
2017-09-11T20:00:34.901Z,15.60
2017-09-11T20:03:03.017Z,15.60
2017-09-11T20:05:31.136Z,15.70
2017-09-11T20:07:59.307Z,15.70
2017-09-11T20:10:27.461Z,15.70
2017-09-11T20:12:55.605Z,15.60
2017-09-11T20:15:23.763Z,15.70
2017-09-11T20:17:52.685Z,15.70
2017-09-11T20:20:20.805Z,15.70
2017-09-11T20:22:48.918Z,15.70
2017-09-11T20:25:17.078Z,15.50
2017-09-11T20:27:45.922Z,15.50
2017-09-11T20:30:14.083Z,15.50
2017-09-11T20:32:43.006Z,15.50
2017-09-11T20:35:11.106Z,15.40
2017-09-11T20:37:39.247Z,15.50
2017-09-11T20:40:07.352Z,15.50
2017-09-11T20:42:35.458Z,15.60
2017-09-11T20:45:03.602Z,15.60
2017-09-11T20:47:31.768Z,15.70
2017-09-11T20:49:59.894Z,15.70
2017-09-11T20:52:27.992Z,15.70
2017-09-11T20:54:56.146Z,15.80
2017-09-11T20:57:24.276Z,15.80
2017-09-11T20:59:52.368Z,15.70
2017-09-11T21:02:20.526Z,15.70
2017-09-11T21:04:48.658Z,15.60
2017-09-11T21:07:18.335Z,15.60
2017-09-11T21:09:46.376Z,15.50
2017-09-11T21:12:14.455Z,15.60
2017-09-11T21:14:43.286Z,15.70
2017-09-11T21:17:11.362Z,15.60
2017-09-11T21:19:39.470Z,15.60
2017-09-11T21:22:08.317Z,15.60
2017-09-11T21:24:36.399Z,15.50
2017-09-11T21:27:04.452Z,15.60
2017-09-11T21:29:32.536Z,15.60
2017-09-11T21:32:00.605Z,15.70
2017-09-11T21:34:28.673Z,15.70
2017-09-11T21:36:56.755Z,15.70
2017-09-11T21:39:24.834Z,15.70
2017-09-11T21:41:52.907Z,15.70
2017-09-11T21:44:20.964Z,15.60
2017-09-11T21:46:49.053Z,15.60
2017-09-11T21:49:17.094Z,15.60
2017-09-11T21:51:45.218Z,15.60
2017-09-11T21:54:14.056Z,15.70
2017-09-11T21:56:42.146Z,15.70
2017-09-11T21:59:10.243Z,15.70
2017-09-11T22:01:39.070Z,15.60
2017-09-11T22:04:07.155Z,15.60
2017-09-11T22:06:35.221Z,15.60
2017-09-11T22:09:03.288Z,15.70
2017-09-11T22:11:31.348Z,15.70
2017-09-11T22:13:59.419Z,15.80
2017-09-11T22:16:27.475Z,15.80
2017-09-11T22:18:55.558Z,15.90
2017-09-11T22:21:23.622Z,16.00
2017-09-11T22:23:51.690Z,16.00
2017-09-11T22:26:19.775Z,16.00
2017-09-11T22:28:47.841Z,16.00
2017-09-11T22:31:15.911Z,15.90
2017-09-11T22:33:43.983Z,15.90
2017-09-11T22:36:12.055Z,15.80
2017-09-11T22:38:40.333Z,15.70
2017-09-11T22:41:08.363Z,15.70
2017-09-11T22:43:36.476Z,15.70
2017-09-11T22:46:04.525Z,15.70
2017-09-11T22:48:32.597Z,15.60
2017-09-11T22:51:00.659Z,15.60
2017-09-11T22:53:28.717Z,15.60
2017-09-11T22:55:56.779Z,15.60
2017-09-11T22:58:24.868Z,15.70
2017-09-11T23:00:52.935Z,15.80
2017-09-11T23:03:21.095Z,15.80
2017-09-11T23:05:49.145Z,15.70
2017-09-11T23:08:17.963Z,15.70
2017-09-11T23:10:46.047Z,15.70
2017-09-11T23:13:14.118Z,15.70
2017-09-11T23:15:42.757Z,15.70
2017-09-11T23:18:10.802Z,15.80
2017-09-11T23:20:38.870Z,15.80
2017-09-11T23:23:07.004Z,15.80
2017-09-11T23:25:35.066Z,15.80
2017-09-11T23:28:03.920Z,15.70
2017-09-11T23:30:32.002Z,15.60
2017-09-11T23:33:00.068Z,15.80
2017-09-11T23:35:28.142Z,15.90
2017-09-11T23:37:56.199Z,15.80
2017-09-11T23:40:24.272Z,15.80
2017-09-11T23:42:52.339Z,15.80
2017-09-11T23:45:20.414Z,16.00
2017-09-11T23:47:48.459Z,16.00
2017-09-11T23:50:16.533Z,16.00
2017-09-11T23:52:44.578Z,16.00
2017-09-11T23:55:12.626Z,16.00
2017-09-11T23:57:42.171Z,16.00
